createdAt,value
2022-12-23T00:01:14.008Z,98507.88
2022-12-23T00:03:15.419Z,98510.19
2022-12-23T00:05:17.654Z,98512.84
2022-12-23T00:07:19.017Z,98502.28
2022-12-23T00:09:20.438Z,98500.22
2022-12-23T00:11:21.829Z,98509.16
2022-12-23T00:13:41.355Z,98515.25
2022-12-23T00:15:42.821Z,98516.03
2022-12-23T00:17:45.655Z,98508.94
2022-12-23T00:19:47.009Z,98516.03
2022-12-23T00:21:48.582Z,98513.94
2022-12-23T00:23:51.564Z,98520.03
2022-12-23T00:25:53.364Z,98517.97
2022-12-23T00:28:03.697Z,98509.75
2022-12-23T00:30:07.373Z,98512.84
2022-12-23T00:32:08.809Z,98517.88
2022-12-23T00:34:11.037Z,98517.88
2022-12-23T00:36:12.700Z,98516.03
2022-12-23T00:38:14.236Z,98516.28
2022-12-23T00:40:34.832Z,98515.00
2022-12-23T00:42:54.218Z,98514.75
2022-12-23T00:45:15.304Z,98507.88
2022-12-23T00:47:36.664Z,98505.00
2022-12-23T00:49:43.742Z,98511.31
2022-12-23T00:51:45.216Z,98523.97
2022-12-23T00:53:46.626Z,98521.06
2022-12-23T00:55:48.678Z,98524.50
2022-12-23T00:57:50.162Z,98509.47
2022-12-23T00:59:51.549Z,98512.91
2022-12-23T01:02:11.436Z,98508.69
2022-12-23T01:04:33.524Z,98516.38
2022-12-23T01:06:34.888Z,98507.66
2022-12-23T01:08:36.366Z,98500.53
2022-12-23T01:10:39.832Z,98506.84
2022-12-23T01:12:41.387Z,98519.53
2022-12-23T01:14:42.787Z,98515.06
2022-12-23T01:16:44.514Z,98524.00
2022-12-23T01:18:45.984Z,98529.28
2022-12-23T01:20:47.365Z,98531.69
2022-12-23T01:22:48.760Z,98522.75
2022-12-23T01:24:50.240Z,98526.41
2022-12-23T01:26:51.578Z,98527.22
2022-12-23T01:28:55.592Z,98528.03
2022-12-23T01:30:57.724Z,98532.50
2022-12-23T01:32:59.125Z,98530.09
2022-12-23T01:35:00.544Z,98538.81
2022-12-23T01:37:02.005Z,98535.94
2022-12-23T01:39:03.491Z,98538.56
2022-12-23T01:41:05.359Z,98545.69
2022-12-23T01:43:06.875Z,98537.50
2022-12-23T01:45:20.400Z,98545.69
2022-12-23T01:47:33.966Z,98545.69
2022-12-23T01:49:35.605Z,98548.06
2022-12-23T01:51:37.023Z,98547.28
2022-12-23T01:53:43.444Z,98559.69
2022-12-23T01:55:47.443Z,98549.66
2022-12-23T01:57:49.270Z,98551.75
2022-12-23T02:00:09.405Z,98550.69
2022-12-23T02:02:29.196Z,98547.28
2022-12-23T02:04:30.653Z,98557.03
2022-12-23T02:06:56.967Z,98553.81
2022-12-23T02:09:16.797Z,98555.97
2022-12-23T02:11:30.448Z,98554.16
2022-12-23T02:14:10.234Z,98550.69
2022-12-23T02:16:17.351Z,98558.38
2022-12-23T02:18:27.668Z,98568.94
2022-12-23T02:20:53.504Z,98565.25
2022-12-23T02:23:14.529Z,98565.00
2022-12-23T02:26:06.841Z,98565.25
2022-12-23T02:28:30.223Z,98572.38
2022-12-23T02:30:45.790Z,98575.00
2022-12-23T02:33:36.134Z,98569.16
2022-12-23T02:35:43.538Z,98576.63
2022-12-23T02:38:09.355Z,98572.91
2022-12-23T02:40:19.708Z,98571.34
2022-12-23T02:42:25.804Z,98573.19
2022-12-23T02:44:32.391Z,98577.16
2022-12-23T02:46:45.001Z,98581.09
2022-12-23T02:48:46.345Z,98584.53
2022-12-23T02:50:48.839Z,98577.41
2022-12-23T02:52:52.252Z,98585.34
2022-12-23T02:54:59.955Z,98593.56
2022-12-23T02:57:04.665Z,98614.09
2022-12-23T02:59:28.693Z,98596.75
2022-12-23T03:01:32.237Z,98589.53
2022-12-23T03:03:35.516Z,98599.06
2022-12-23T03:05:42.469Z,98606.28
2022-12-23T03:07:43.915Z,98600.19
2022-12-23T03:09:54.825Z,98610.75
2022-12-23T03:12:17.197Z,98607.06
2022-12-23T03:15:02.372Z,98600.19
2022-12-23T03:17:09.960Z,98613.88
2022-12-23T03:19:14.283Z,98601.72
2022-12-23T03:21:30.803Z,98609.63
2022-12-23T03:23:43.988Z,98614.41
2022-12-23T03:26:00.658Z,98620.97
2022-12-23T03:28:17.749Z,98623.34
2022-12-23T03:30:20.736Z,98625.22
2022-12-23T03:32:24.513Z,98623.34
2022-12-23T03:34:30.085Z,98623.03
2022-12-23T03:36:36.738Z,98633.59
2022-12-23T03:38:40.385Z,98637.59
2022-12-23T03:40:46.751Z,98636.00
2022-12-23T03:42:57.938Z,98642.06
2022-12-23T03:45:37.057Z,98637.59
2022-12-23T03:47:29.770Z,98641.75
2022-12-23T03:49:37.282Z,98646.53
2022-12-23T03:51:46.553Z,98650.53
2022-12-23T03:54:01.126Z,98650.69
2022-12-23T03:56:07.714Z,98652.31
2022-12-23T03:58:33.988Z,98647.84
2022-12-23T04:00:42.803Z,98643.38
2022-12-23T04:02:56.270Z,98646.78
2022-12-23T04:05:27.310Z,98653.91
2022-12-23T04:07:36.885Z,98650.22
2022-12-23T04:09:39.469Z,98641.75
2022-12-23T04:11:41.314Z,98645.75
2022-12-23T04:13:42.874Z,98643.09
2022-12-23T04:15:44.930Z,98643.44
2022-12-23T04:17:46.510Z,98636.00
2022-12-23T04:19:47.959Z,98649.72
2022-12-23T04:21:49.376Z,98656.88
2022-12-23T04:23:50.751Z,98651.81
2022-12-23T04:25:52.173Z,98651.59
2022-12-23T04:27:53.561Z,98653.44
2022-12-23T04:29:54.927Z,98643.09
2022-12-23T04:31:56.438Z,98646.78
2022-12-23T04:33:57.900Z,98640.72
2022-12-23T04:36:00.460Z,98643.91
2022-12-23T04:38:01.878Z,98649.41
2022-12-23T04:40:04.888Z,98646.00
2022-12-23T04:42:06.321Z,98654.47
2022-12-23T04:44:07.837Z,98644.13
2022-12-23T04:46:09.286Z,98645.75
2022-12-23T04:48:10.802Z,98642.31
2022-12-23T04:50:16.564Z,98648.06
2022-12-23T04:52:17.951Z,98651.28
2022-12-23T04:54:19.396Z,98650.22
2022-12-23T04:56:20.813Z,98656.56
2022-12-23T04:58:24.086Z,98649.41
2022-12-23T05:00:25.638Z,98667.66
2022-12-23T05:02:27.164Z,98661.56
2022-12-23T05:04:28.796Z,98661.03
2022-12-23T05:06:30.201Z,98666.28
2022-12-23T05:08:32.132Z,98679.47
2022-12-23T05:10:33.563Z,98670.78
2022-12-23T05:12:35.155Z,98672.13
2022-12-23T05:14:36.621Z,98671.31
2022-12-23T05:16:38.929Z,98672.13
2022-12-23T05:18:40.357Z,98670.50
2022-12-23T05:20:42.071Z,98675.78
2022-12-23T05:22:43.457Z,98674.75
2022-12-23T05:24:44.944Z,98679.81
2022-12-23T05:26:51.829Z,98677.16
2022-12-23T05:28:59.142Z,98677.06
2022-12-23T05:31:02.303Z,98677.66
2022-12-23T05:33:03.862Z,98683.16
2022-12-23T05:35:06.665Z,98681.53
2022-12-23T05:37:08.084Z,98675.16
2022-12-23T05:39:09.844Z,98673.09
2022-12-23T05:41:11.347Z,98668.63
2022-12-23T05:43:12.746Z,98670.44
2022-12-23T05:45:14.192Z,98672.03
2022-12-23T05:47:15.656Z,98674.22
2022-12-23T05:49:17.169Z,98677.06
2022-12-23T05:51:18.510Z,98677.78
2022-12-23T05:53:21.116Z,98680.19
2022-12-23T05:55:22.497Z,98675.16
2022-12-23T05:57:23.946Z,98672.50
2022-12-23T05:59:31.655Z,98685.47
2022-12-23T06:01:33.383Z,98686.00
2022-12-23T06:03:35.136Z,98691.22
2022-12-23T06:05:38.794Z,98683.06
2022-12-23T06:07:40.558Z,98692.03
2022-12-23T06:09:41.979Z,98696.03
2022-12-23T06:11:43.382Z,98695.44
2022-12-23T06:13:44.811Z,98702.09
2022-12-23T06:15:46.718Z,98705.75
2022-12-23T06:17:48.453Z,98704.16
2022-12-23T06:19:49.907Z,98700.16
2022-12-23T06:21:51.267Z,98708.31
2022-12-23T06:23:52.803Z,98714.16
2022-12-23T06:26:01.837Z,98716.78
2022-12-23T06:28:03.504Z,98720.25
2022-12-23T06:30:05.334Z,98713.91
2022-12-23T06:32:06.921Z,98712.31
2022-12-23T06:34:08.367Z,98707.59
2022-12-23T06:36:10.238Z,98714.72
2022-12-23T06:38:12.403Z,98711.53
2022-12-23T06:40:14.095Z,98710.72
2022-12-23T06:42:15.642Z,98706.47
2022-12-23T06:44:17.574Z,98716.53
2022-12-23T06:46:18.984Z,98714.97
2022-12-23T06:48:20.444Z,98717.81
2022-12-23T06:50:21.861Z,98713.84
2022-12-23T06:52:23.312Z,98714.16
2022-12-23T06:54:24.702Z,98710.72
2022-12-23T06:56:26.463Z,98714.97
2022-12-23T06:58:27.895Z,98713.84
2022-12-23T07:00:29.399Z,98709.91
2022-12-23T07:02:30.936Z,98714.97
2022-12-23T07:04:32.408Z,98709.91
2022-12-23T07:06:33.890Z,98715.44
2022-12-23T07:08:35.330Z,98715.66
2022-12-23T07:10:36.788Z,98717.28
2022-12-23T07:12:38.523Z,98714.84
2022-12-23T07:14:40.000Z,98718.63
2022-12-23T07:16:41.608Z,98722.53
2022-12-23T07:18:43.407Z,98724.59
2022-12-23T07:20:44.793Z,98727.81
2022-12-23T07:22:46.276Z,98726.22
2022-12-23T07:24:47.662Z,98732.03
2022-12-23T07:26:49.095Z,98734.13
2022-12-23T07:28:50.550Z,98742.03
2022-12-23T07:30:51.963Z,98748.34
2022-12-23T07:32:53.746Z,98747.63
2022-12-23T07:34:55.144Z,98753.63
2022-12-23T07:36:56.655Z,98758.88
2022-12-23T07:38:58.092Z,98760.28
2022-12-23T07:40:59.543Z,98771.03
2022-12-23T07:43:01.138Z,98773.47
2022-12-23T07:45:02.623Z,98782.63
2022-12-23T07:47:04.063Z,98790.78
2022-12-23T07:49:05.527Z,98797.09
2022-12-23T07:51:07.019Z,98800.06
2022-12-23T07:53:08.783Z,98807.16
2022-12-23T07:55:10.414Z,98798.44
2022-12-23T07:57:11.780Z,98800.75
2022-12-23T07:59:13.260Z,98800.28
2022-12-23T08:01:15.071Z,98808.44
2022-12-23T08:03:16.671Z,98795.81
2022-12-23T08:05:18.623Z,98796.06
2022-12-23T08:07:20.594Z,98796.28
2022-12-23T08:09:22.697Z,98796.28
2022-12-23T08:11:24.798Z,98803.50
2022-12-23T08:13:27.344Z,98789.72
2022-12-23T08:15:29.435Z,98803.50
2022-12-23T08:17:31.223Z,98802.69
2022-12-23T08:19:34.159Z,98790.53
2022-12-23T08:21:36.240Z,98781.38
2022-12-23T08:23:38.431Z,98784.78
2022-12-23T08:25:40.390Z,98785.59
2022-12-23T08:27:42.541Z,98778.97
2022-12-23T08:29:44.586Z,98778.41
2022-12-23T08:31:46.578Z,98779.97
2022-12-23T08:33:51.037Z,98785.25
2022-12-23T08:35:55.006Z,98795.00
2022-12-23T08:37:57.048Z,98792.69
2022-12-23T08:39:58.939Z,98792.47
2022-12-23T08:42:01.185Z,98793.28
2022-12-23T08:44:03.425Z,98793.50
2022-12-23T08:46:06.156Z,98793.97
2022-12-23T08:48:08.078Z,98786.16
2022-12-23T08:50:12.218Z,98779.84
2022-12-23T08:52:14.727Z,98791.66
2022-12-23T08:54:17.749Z,98788.56
2022-12-23T08:56:22.237Z,98785.91
2022-12-23T08:58:24.167Z,98780.97
2022-12-23T09:00:26.269Z,98779.13
2022-12-23T09:02:28.260Z,98780.53
2022-12-23T09:04:30.127Z,98779.13
2022-12-23T09:06:35.769Z,98778.91
2022-12-23T09:08:38.388Z,98789.69
2022-12-23T09:10:44.196Z,98797.94
2022-12-23T09:12:46.356Z,98799.06
2022-12-23T09:14:48.567Z,98797.38
2022-12-23T09:16:52.648Z,98800.81
2022-12-23T09:18:54.827Z,98799.53
2022-12-23T09:21:02.558Z,98794.81
2022-12-23T09:23:05.017Z,98800.09
2022-12-23T09:25:06.662Z,98796.69
2022-12-23T09:27:08.203Z,98776.13
2022-12-23T09:29:09.630Z,98772.47
2022-12-23T09:31:37.608Z,98780.59
2022-12-23T09:33:39.945Z,98779.56
2022-12-23T09:35:41.592Z,98774.63
2022-12-23T09:37:43.130Z,98778.75
2022-12-23T09:39:44.526Z,98779.63
2022-12-23T09:42:01.346Z,98784.13
2022-12-23T09:44:14.922Z,98780.13
2022-12-23T09:46:21.748Z,98773.59
2022-12-23T09:48:27.913Z,98786.53
2022-12-23T09:50:32.009Z,98779.41
2022-12-23T09:53:00.418Z,98775.81
2022-12-23T09:55:01.980Z,98765.84
2022-12-23T09:57:16.394Z,98759.19
2022-12-23T09:59:39.453Z,98760.00
2022-12-23T10:01:48.967Z,98755.84
2022-12-23T10:04:12.227Z,98743.53
2022-12-23T10:06:22.520Z,98748.03
2022-12-23T10:08:44.088Z,98744.25
2022-12-23T10:10:50.992Z,98748.94
2022-12-23T10:12:53.627Z,98746.91
2022-12-23T10:14:57.153Z,98749.63
2022-12-23T10:17:16.089Z,98744.56
2022-12-23T10:19:27.715Z,98745.94
2022-12-23T10:21:43.739Z,98750.41
2022-12-23T10:23:52.390Z,98741.94
2022-12-23T10:25:53.953Z,98748.81
2022-12-23T10:27:55.530Z,98747.69
2022-12-23T10:30:42.520Z,98748.81
2022-12-23T10:33:02.383Z,98745.38
2022-12-23T10:35:38.993Z,98737.22
2022-12-23T10:37:52.655Z,98723.56
2022-12-23T10:39:57.002Z,98708.75
2022-12-23T10:42:28.498Z,98708.75
2022-12-23T10:44:29.812Z,98698.09
2022-12-23T10:46:50.533Z,98691.88
2022-12-23T10:49:10.601Z,98701.06
2022-12-23T10:51:36.664Z,98685.81
2022-12-23T10:53:45.634Z,98683.50
2022-12-23T10:55:50.094Z,98677.94
2022-12-23T10:57:52.684Z,98671.16
2022-12-23T10:59:54.090Z,98668.28
2022-12-23T11:02:04.441Z,98667.00
2022-12-23T11:04:17.831Z,98668.34
2022-12-23T11:06:19.439Z,98662.84
2022-12-23T11:08:23.005Z,98665.06
2022-12-23T11:10:28.455Z,98661.44
2022-12-23T11:12:48.473Z,98669.06
2022-12-23T11:14:55.008Z,98657.47
2022-12-23T11:16:56.593Z,98658.50
2022-12-23T11:19:04.389Z,98645.22
2022-12-23T11:21:06.792Z,98646.50
2022-12-23T11:23:28.756Z,98647.53
2022-12-23T11:25:41.553Z,98648.81
2022-12-23T11:27:46.430Z,98639.88
2022-12-23T11:29:54.603Z,98639.06
2022-12-23T11:31:56.309Z,98634.09
2022-12-23T11:34:02.045Z,98623.31
2022-12-23T11:36:12.438Z,98621.13
2022-12-23T11:38:14.611Z,98609.38
2022-12-23T11:40:30.950Z,98600.78
2022-12-23T11:42:34.375Z,98612.09
2022-12-23T11:44:44.071Z,98631.56
2022-12-23T11:46:45.581Z,98616.03
2022-12-23T11:48:54.395Z,98607.91
2022-12-23T11:51:01.569Z,98609.97
2022-12-23T11:53:14.466Z,98608.41
2022-12-23T11:55:29.668Z,98604.16
2022-12-23T11:57:45.903Z,98605.69
2022-12-23T11:59:49.825Z,98602.50
2022-12-23T12:01:51.392Z,98592.09
2022-12-23T12:04:00.108Z,98593.47
2022-12-23T12:06:05.269Z,98592.84
2022-12-23T12:08:11.695Z,98582.28
2022-12-23T12:10:27.896Z,98585.47
2022-12-23T12:12:30.293Z,98584.19
2022-12-23T12:14:37.867Z,98567.56
2022-12-23T12:16:57.663Z,98568.78
2022-12-23T12:19:07.488Z,98560.38
2022-12-23T12:21:21.218Z,98547.38
2022-12-23T12:23:29.312Z,98544.47
2022-12-23T12:25:32.969Z,98538.69
2022-12-23T12:27:39.436Z,98532.94
2022-12-23T12:29:50.709Z,98531.88
2022-12-23T12:31:55.010Z,98526.09
2022-12-23T12:34:20.525Z,98513.97
2022-12-23T12:36:24.791Z,98513.91
2022-12-23T12:38:32.555Z,98500.81
2022-12-23T12:40:42.410Z,98495.84
2022-12-23T12:42:55.505Z,98489.53
2022-12-23T12:45:15.908Z,98482.59
2022-12-23T12:47:59.913Z,98481.81
2022-12-23T12:50:19.792Z,98474.94
2022-12-23T12:52:24.211Z,98469.91
2022-12-23T12:54:32.358Z,98472.47
2022-12-23T12:56:45.643Z,98475.59
2022-12-23T12:58:47.059Z,98464.78
2022-12-23T13:01:14.423Z,98474.53
2022-12-23T13:03:28.803Z,98467.19
2022-12-23T13:05:54.405Z,98471.44
2022-12-23T13:08:33.089Z,98469.53
2022-12-23T13:10:43.309Z,98457.06
2022-12-23T13:12:47.587Z,98456.56
2022-12-23T13:14:55.061Z,98455.53
2022-12-23T13:17:17.876Z,98456.34
2022-12-23T13:19:30.921Z,98451.91
2022-12-23T13:21:42.421Z,98455.59
2022-12-23T13:24:04.328Z,98445.59
2022-12-23T13:26:18.432Z,98445.59
2022-12-23T13:28:32.144Z,98436.63
2022-12-23T13:30:45.767Z,98441.13
2022-12-23T13:32:53.288Z,98434.72
2022-12-23T13:34:59.913Z,98434.72
2022-12-23T13:37:29.154Z,98416.75
2022-12-23T13:39:56.848Z,98416.19
2022-12-23T13:42:05.690Z,98415.16
2022-12-23T13:44:13.534Z,98413.31
2022-12-23T13:46:25.565Z,98402.69
2022-12-23T13:48:40.607Z,98397.31
2022-12-23T13:51:21.302Z,98387.25
2022-12-23T13:54:11.040Z,98371.94
2022-12-23T13:56:23.871Z,98361.69
2022-12-23T13:58:28.253Z,98357.44
2022-12-23T14:00:34.387Z,98347.38
2022-12-23T14:02:35.860Z,98334.19
2022-12-23T14:04:58.591Z,98334.06
2022-12-23T14:07:03.514Z,98323.69
2022-12-23T14:09:04.943Z,98325.84
2022-12-23T14:11:19.281Z,98320.88
2022-12-23T14:13:24.298Z,98301.63
2022-12-23T14:15:31.568Z,98305.25
2022-12-23T14:17:51.855Z,98300.75
2022-12-23T14:20:24.648Z,98305.38
2022-12-23T14:23:05.071Z,98281.84
2022-12-23T14:25:35.841Z,98291.06
2022-12-23T14:27:49.031Z,98274.94
2022-12-23T14:30:10.404Z,98271.00
2022-12-23T14:32:27.876Z,98270.75
2022-12-23T14:34:32.973Z,98270.47
2022-12-23T14:36:34.621Z,98269.38
2022-12-23T14:38:36.178Z,98266.97
2022-12-23T14:40:37.563Z,98264.03
2022-12-23T14:42:43.584Z,98259.81
2022-12-23T14:44:50.209Z,98259.81
2022-12-23T14:46:54.947Z,98255.31
2022-12-23T14:49:22.510Z,98250.03
2022-12-23T14:51:32.708Z,98242.13
2022-12-23T14:53:35.656Z,98238.91
2022-12-23T14:55:40.267Z,98239.16
2022-12-23T14:57:43.013Z,98238.56
2022-12-23T15:00:08.846Z,98244.38
2022-12-23T15:02:16.119Z,98224.34
2022-12-23T15:04:25.985Z,98221.72
2022-12-23T15:06:28.425Z,98227.00
2022-12-23T15:08:36.280Z,98216.44
2022-12-23T15:10:38.349Z,98216.69
2022-12-23T15:12:42.508Z,98214.84
2022-12-23T15:14:54.195Z,98211.41
2022-12-23T15:16:55.719Z,98211.09
2022-12-23T15:19:00.006Z,98228.53
2022-12-23T15:21:04.367Z,98217.69
2022-12-23T15:23:16.872Z,98211.53
2022-12-23T15:25:27.550Z,98199.97
2022-12-23T15:27:35.122Z,98197.06
2022-12-23T15:29:36.681Z,98196.03
2022-12-23T15:31:42.305Z,98192.28
2022-12-23T15:34:03.926Z,98187.00
2022-12-23T15:36:07.575Z,98187.59
2022-12-23T15:38:16.137Z,98181.22
2022-12-23T15:40:24.760Z,98183.84
2022-12-23T15:42:31.257Z,98173.03
2022-12-23T15:44:38.818Z,98179.88
2022-12-23T15:46:41.046Z,98179.91
2022-12-23T15:48:43.300Z,98176.47
2022-12-23T15:50:44.703Z,98168.34
2022-12-23T15:52:48.794Z,98178.06
2022-12-23T15:54:57.335Z,98168.06
2022-12-23T15:57:00.997Z,98168.88
2022-12-23T15:59:03.553Z,98170.16
2022-12-23T16:01:31.661Z,98170.91
2022-12-23T16:03:40.341Z,98174.41
2022-12-23T16:05:43.016Z,98176.25
2022-12-23T16:07:44.669Z,98187.09
2022-12-23T16:09:46.307Z,98173.63
2022-12-23T16:11:51.104Z,98169.16
2022-12-23T16:14:19.973Z,98169.94
2022-12-23T16:16:43.480Z,98166.53
2022-12-23T16:18:47.555Z,98162.09
2022-12-23T16:21:04.244Z,98160.59
2022-12-23T16:23:05.954Z,98163.78
2022-12-23T16:25:31.112Z,98167.63
2022-12-23T16:27:43.320Z,98156.84
2022-12-23T16:29:48.672Z,98161.09
2022-12-23T16:31:54.452Z,98159.88
2022-12-23T16:34:07.000Z,98165.47
2022-12-23T16:36:15.346Z,98166.06
2022-12-23T16:38:22.164Z,98195.88
2022-12-23T16:40:24.458Z,98172.25
2022-12-23T16:42:25.839Z,98177.78
2022-12-23T16:44:27.229Z,98176.00
2022-12-23T16:46:34.089Z,98167.25
2022-12-23T16:48:37.173Z,98172.81
2022-12-23T16:50:38.775Z,98168.97
2022-12-23T16:52:40.428Z,98165.84
2022-12-23T16:54:42.492Z,98169.81
2022-12-23T16:56:46.752Z,98179.63
2022-12-23T16:58:48.533Z,98173.06
2022-12-23T17:00:51.180Z,98165.13
2022-12-23T17:02:52.741Z,98168.03
2022-12-23T17:05:00.521Z,98160.34
2022-12-23T17:07:02.018Z,98173.56
2022-12-23T17:09:05.594Z,98179.16
2022-12-23T17:11:17.771Z,98188.66
2022-12-23T17:13:19.398Z,98193.47
2022-12-23T17:15:25.180Z,98180.53
2022-12-23T17:17:26.565Z,98196.41
2022-12-23T17:19:28.912Z,98197.75
2022-12-23T17:21:39.020Z,98196.94
2022-12-23T17:23:40.431Z,98204.34
2022-12-23T17:25:41.817Z,98211.75
2022-12-23T17:27:44.888Z,98194.31
2022-12-23T17:29:46.550Z,98190.38
2022-12-23T17:31:48.810Z,98204.91
2022-12-23T17:33:50.242Z,98196.19
2022-12-23T17:35:51.691Z,98184.31
2022-12-23T17:37:53.469Z,98167.63
2022-12-23T17:39:54.893Z,98185.38
2022-12-23T17:41:56.371Z,98184.31
2022-12-23T17:43:58.225Z,98188.03
2022-12-23T17:45:59.690Z,98210.75
2022-12-23T17:48:01.146Z,98197.56
2022-12-23T17:50:02.552Z,98215.28
2022-12-23T17:52:06.407Z,98222.41
2022-12-23T17:54:20.593Z,98204.69
2022-12-23T17:56:22.546Z,98216.84
2022-12-23T17:58:23.955Z,98242.25
2022-12-23T18:00:33.852Z,98230.63
2022-12-23T18:02:38.217Z,98226.66
2022-12-23T18:04:39.718Z,98235.91
2022-12-23T18:06:41.271Z,98244.38
2022-12-23T18:08:42.722Z,98238.56
2022-12-23T18:10:45.522Z,98226.41
2022-12-23T18:12:51.615Z,98255.75
2022-12-23T18:14:53.247Z,98257.06
2022-12-23T18:16:54.919Z,98261.31
2022-12-23T18:18:56.631Z,98276.94
2022-12-23T18:20:59.017Z,98272.41
2022-12-23T18:23:01.891Z,98269.00
2022-12-23T18:25:03.975Z,98261.03
2022-12-23T18:27:13.259Z,98268.47
2022-12-23T18:29:15.091Z,98270.81
2022-12-23T18:31:19.676Z,98274.00
2022-12-23T18:33:21.384Z,98276.66
2022-12-23T18:35:35.851Z,98302.03
2022-12-23T18:37:37.591Z,98293.31
2022-12-23T18:39:39.440Z,98294.09
2022-12-23T18:41:40.874Z,98294.09
2022-12-23T18:43:42.383Z,98318.44
2022-12-23T18:45:50.667Z,98314.19
2022-12-23T18:47:54.124Z,98320.28
2022-12-23T18:49:56.025Z,98340.13
2022-12-23T18:51:57.391Z,98327.94
2022-12-23T18:53:59.081Z,98322.66
2022-12-23T18:56:00.698Z,98322.63
2022-12-23T18:58:02.530Z,98320.50
2022-12-23T19:00:12.688Z,98319.97
2022-12-23T19:02:15.104Z,98326.53
2022-12-23T19:04:16.672Z,98323.66
2022-12-23T19:06:18.116Z,98330.50
2022-12-23T19:08:26.140Z,98334.19
2022-12-23T19:10:33.148Z,98333.66
2022-12-23T19:12:34.625Z,98327.34
2022-12-23T19:14:39.761Z,98336.06
2022-12-23T19:16:46.070Z,98340.81
2022-12-23T19:18:50.989Z,98343.97
2022-12-23T19:20:52.393Z,98355.91
2022-12-23T19:22:53.903Z,98361.16
2022-12-23T19:25:05.378Z,98378.31
2022-12-23T19:27:07.539Z,98366.97
2022-12-23T19:29:09.286Z,98366.16
2022-12-23T19:31:13.009Z,98369.03
2022-12-23T19:33:14.631Z,98374.84
2022-12-23T19:35:16.622Z,98371.38
2022-12-23T19:37:18.711Z,98373.47
2022-12-23T19:39:21.994Z,98380.31
2022-12-23T19:41:24.518Z,98391.19
2022-12-23T19:43:26.472Z,98392.25
2022-12-23T19:45:27.909Z,98394.03
2022-12-23T19:47:29.675Z,98382.50
2022-12-23T19:49:31.515Z,98399.66
2022-12-23T19:53:59.044Z,98413.88
2022-12-23T19:56:02.871Z,98416.84
2022-12-23T19:58:05.023Z,98411.56
2022-12-23T20:00:08.220Z,98424.16
2022-12-23T20:02:18.340Z,98417.88
2022-12-23T20:04:20.330Z,98419.94
2022-12-23T20:06:27.909Z,98420.47
2022-12-23T20:08:30.349Z,98421.50
2022-12-23T20:10:32.177Z,98412.25
2022-12-23T20:12:33.636Z,98425.47
2022-12-23T20:14:35.363Z,98421.53
2022-12-23T20:16:39.082Z,98426.81
2022-12-23T20:18:40.658Z,98431.03
2022-12-23T20:20:44.281Z,98430.53
2022-12-23T20:22:45.811Z,98420.47
2022-12-23T20:24:47.727Z,98437.88
2022-12-23T20:26:52.085Z,98442.63
2022-12-23T20:29:01.416Z,98450.31
2022-12-23T20:31:18.090Z,98449.31
2022-12-23T20:33:23.544Z,98443.16
2022-12-23T20:35:30.227Z,98450.28
2022-12-23T20:37:35.383Z,98455.06
2022-12-23T20:39:38.335Z,98449.25
2022-12-23T20:41:39.793Z,98464.31
2022-12-23T20:43:42.597Z,98454.25
2022-12-23T20:45:46.451Z,98461.66
2022-12-23T20:47:48.471Z,98471.72
2022-12-23T20:49:53.797Z,98475.84
2022-12-23T20:51:55.979Z,98479.78
2022-12-23T20:54:01.147Z,98481.91
2022-12-23T20:56:04.869Z,98470.25
2022-12-23T20:58:25.435Z,98484.56
2022-12-23T21:00:31.104Z,98487.19
2022-12-23T21:02:36.257Z,98484.56
2022-12-23T21:04:38.572Z,98505.41
2022-12-23T21:06:40.293Z,98507.56
2022-12-23T21:08:43.358Z,98513.84
2022-12-23T21:10:53.497Z,98512.50
2022-12-23T21:12:55.035Z,98515.19
2022-12-23T21:14:56.614Z,98531.50
2022-12-23T21:16:58.066Z,98533.50
2022-12-23T21:19:00.432Z,98530.50
2022-12-23T21:21:04.114Z,98519.94
2022-12-23T21:23:05.825Z,98553.72
2022-12-23T21:25:07.539Z,98541.38
2022-12-23T21:27:09.716Z,98532.16
2022-12-23T21:29:17.144Z,98534.47
2022-12-23T21:31:56.665Z,98537.88
2022-12-23T21:33:58.630Z,98541.13
2022-12-23T21:36:00.044Z,98526.25
2022-12-23T21:38:01.544Z,98541.56
2022-12-23T21:40:03.035Z,98538.13
2022-12-23T21:42:04.561Z,98542.84
2022-12-23T21:44:06.008Z,98546.06
2022-12-23T21:46:10.863Z,98535.50
2022-12-23T21:48:12.286Z,98552.38
2022-12-23T21:50:13.705Z,98539.91
2022-12-23T21:52:15.121Z,98571.44
2022-12-23T21:54:16.528Z,98544.66
2022-12-23T21:56:21.373Z,98556.47
2022-12-23T21:58:22.922Z,98548.19
2022-12-23T22:00:24.425Z,98547.16
2022-12-23T22:02:25.866Z,98545.03
2022-12-23T22:04:27.263Z,98549.00
2022-12-23T22:06:31.884Z,98554.28
2022-12-23T22:08:33.830Z,98555.81
2022-12-23T22:10:38.377Z,98565.09
2022-12-23T22:12:39.808Z,98572.47
2022-12-23T22:14:41.203Z,98577.50
2022-12-23T22:16:42.952Z,98591.50
2022-12-23T22:18:44.954Z,98585.91
2022-12-23T22:20:46.679Z,98593.03
2022-12-23T22:22:48.563Z,98598.88
2022-12-23T22:24:49.960Z,98585.88
2022-12-23T22:26:51.365Z,98597.25
2022-12-23T22:28:55.469Z,98596.13
2022-12-23T22:31:27.343Z,98606.00
2022-12-23T22:33:28.782Z,98620.94
2022-12-23T22:35:30.712Z,98599.50
2022-12-23T22:37:32.065Z,98621.66
2022-12-23T22:39:33.438Z,98626.13
2022-12-23T22:41:35.226Z,98624.59
2022-12-23T22:43:37.001Z,98632.00
2022-12-23T22:45:38.537Z,98607.41
2022-12-23T22:47:40.051Z,98627.50
2022-12-23T22:49:41.503Z,98610.06
2022-12-23T22:51:44.205Z,98647.34
2022-12-23T22:53:46.019Z,98640.22
2022-12-23T22:55:56.881Z,98650.78
2022-12-23T22:57:58.251Z,98654.53
2022-12-23T23:00:00.755Z,98660.16
2022-12-23T23:02:04.969Z,98657.50
2022-12-23T23:04:07.816Z,98661.22
2022-12-23T23:06:10.103Z,98663.09
2022-12-23T23:08:14.445Z,98671.78
2022-12-23T23:10:15.978Z,98684.41
2022-12-23T23:12:17.513Z,98674.41
2022-12-23T23:14:20.151Z,98671.19
2022-12-23T23:16:22.764Z,98669.84
2022-12-23T23:18:25.574Z,98681.53
2022-12-23T23:20:26.937Z,98681.75
2022-12-23T23:25:47.603Z,98698.63
2022-12-23T23:27:49.071Z,98701.53
2022-12-23T23:29:50.442Z,98697.06
2022-12-23T23:31:51.841Z,98695.69
2022-12-23T23:33:53.401Z,98696.25
2022-12-23T23:35:56.581Z,98718.72
2022-12-23T23:37:58.175Z,98697.06
2022-12-23T23:39:59.583Z,98695.78
2022-12-23T23:42:01.158Z,98701.53
2022-12-23T23:44:02.566Z,98714.16
2022-12-23T23:46:04.133Z,98716.56
2022-12-23T23:48:06.875Z,98716.41
2022-12-23T23:50:08.605Z,98718.19
2022-12-23T23:52:10.009Z,98714.75
2022-12-23T23:54:11.482Z,98720.75
2022-12-23T23:56:12.964Z,98714.97
2022-12-23T23:58:14.370Z,98721.13
